Sunday, January 20, 2019, 7:46 AM GMT
Back to Local

CYOY, Valcartier Airport

Location: , , Canada Lat: 46.9
Local Time: 7:46 AM GMT ( 7:46 GMT) Lon: -71.5
Time Zone: GMT Elev: 551 ft

Show me the last for .
Show Decoded

2019-01-20 07:38 METAR CYOY 200738Z AUTO 07010G17KT 1SM -SN M20/M25 A3020 =
2019-01-20 07:29 METAR CYOY 200729Z AUTO 07010G16KT 040V120 1 1/4SM M20/M25 A3020 =
2019-01-20 07:00 METAR CYOY 200700Z AUTO 07010G16KT 2 1/4SM M20/M25 A3022 RMK SLP255 =
2019-01-20 06:33 METAR CYOY 200633Z AUTO 07009G19KT 040V110 2SM M20/M25 A3024 =
2019-01-20 06:23 METAR CYOY 200623Z AUTO 08008G19KT 1 1/4SM M20/M25 A3024 =
2019-01-20 06:03 METAR CYOY 200603Z AUTO 08010G15KT 050V120 1 1/4SM -SN M20/M25 A3024 =
2019-01-20 06:00 METAR CYOY 200600Z AUTO 07005KT 1 5/8SM -SN M20/M25 A3024 RMK SLP261 =
2019-01-20 05:56 METAR CYOY 200556Z AUTO 07007KT 2 1/4SM -SN M20/M25 A3024 RMK VSBY VRBL 1.5V7.0
                 =
2019-01-20 05:54 METAR CYOY 200554Z AUTO 08007KT 3SM -SN M20/M25 A3024 =
2019-01-20 05:00 METAR CYOY 200500Z AUTO 07008G15KT 040V120 9SM M20/M25 A3027 RMK SLP270 =
2019-01-20 04:00 METAR CYOY 200400Z AUTO 06002KT 9SM M23/M28 A3030 RMK SLP281 =
2019-01-20 03:00 METAR CYOY 200300Z AUTO 05003KT 9SM M24/M28 A3032 RMK SLP290 =
2019-01-20 02:00 METAR CYOY 200200Z AUTO 06002KT 9SM M24/M28 A3034 RMK SLP296 =
2019-01-20 01:00 METAR CYOY 200100Z AUTO 02004KT 9SM M23/M28 A3036 RMK SLP305 =
2019-01-20 00:00 METAR CYOY 200000Z AUTO 05002KT 9SM M23/M28 A3038 RMK SLP310 =
2019-01-19 23:00 METAR CYOY 192300Z AUTO 00000KT 9SM M23/M28 A3039 RMK SLP314 =
2019-01-19 22:00 METAR CYOY 192200Z AUTO 13005KT 9SM M23/M28 A3039 RMK SLP315 =
2019-01-19 21:00 METAR CYOY 192100Z AUTO 12004KT 9SM M23/M29 A3038 RMK SLP308 =
2019-01-19 20:00 METAR CYOY 192000Z AUTO 15002KT 9SM M22/M29 A3037 RMK SLP306 =
2019-01-19 19:00 METAR CYOY 191900Z AUTO 22005KT 9SM M21/M29 A3035 RMK SLP299 =
2019-01-19 18:00 METAR CYOY 191800Z AUTO 13003KT 9SM M21/M29 A3036 RMK SLP301 =
2019-01-19 17:00 METAR CYOY 191700Z AUTO 00000KT 9SM M20/M30 A3040 RMK SLP314 =
2019-01-19 16:00 METAR CYOY 191600Z AUTO 00000KT 9SM M22/M31 A3042 RMK SLP322 =
2019-01-19 15:00 METAR CYOY 191500Z AUTO 00000KT 9SM M23/M33 A3042 RMK SLP322 =
2019-01-19 14:00 METAR CYOY 191400Z AUTO 22003KT 9SM M26/M34 A3041 RMK SLP316 =
2019-01-19 13:00 METAR CYOY 191300Z AUTO 00000KT 9SM M29/M35 A3038 RMK SLP309 =
2019-01-19 12:00 METAR CYOY 191200Z AUTO 29007KT 9SM M28/M34 A3036 RMK SLP302 =
2019-01-19 11:00 METAR CYOY 191100Z AUTO 28002KT 9SM M27/M33 A3034 RMK SLP294 =
2019-01-19 10:00 METAR CYOY 191000Z AUTO 30006KT 9SM M26/M33 A3032 RMK SLP285 =
2019-01-19 09:00 METAR CYOY 190900Z AUTO 33008KT 9SM M24/M32 A3028 RMK SLP273 =
2019-01-19 08:00 METAR CYOY 190800Z AUTO 34004KT 260V360 9SM M23/M30 A3025 RMK SLP263 =

Support USWX by starting your Amazon purchase here.